createdAt,value
2022-10-18T00:00:09.578Z,13.27
2022-10-18T00:02:38.323Z,13.25
2022-10-18T00:05:05.800Z,13.22
2022-10-18T00:07:33.273Z,13.17
2022-10-18T00:10:00.631Z,13.12
2022-10-18T00:12:27.879Z,13.11
2022-10-18T00:14:55.038Z,13.12
2022-10-18T00:17:22.202Z,13.09
2022-10-18T00:19:50.336Z,13.07
2022-10-18T00:22:17.460Z,13.12
2022-10-18T00:24:44.630Z,13.18
2022-10-18T00:27:11.807Z,13.12
2022-10-18T00:29:39.019Z,13.09
2022-10-18T00:32:06.198Z,13.09
2022-10-18T00:34:33.334Z,13.08
2022-10-18T00:37:00.481Z,13.01
2022-10-18T00:39:27.663Z,12.98
2022-10-18T00:41:55.013Z,12.95
2022-10-18T00:44:24.911Z,12.92
2022-10-18T00:46:55.721Z,12.90
2022-10-18T00:49:31.125Z,12.88
2022-10-18T00:52:03.842Z,12.82
2022-10-18T00:54:34.554Z,12.83
2022-10-18T00:57:02.631Z,12.83
2022-10-18T00:59:30.165Z,12.84
2022-10-18T01:01:57.456Z,12.82
2022-10-18T01:04:25.248Z,12.79
2022-10-18T01:07:28.916Z,12.83
2022-10-18T01:10:13.996Z,12.78
2022-10-18T01:13:10.190Z,12.75
2022-10-18T01:16:01.278Z,12.69
2022-10-18T01:18:36.222Z,12.68
2022-10-18T01:21:08.866Z,12.65
2022-10-18T01:23:57.547Z,12.62
2022-10-18T01:26:44.262Z,12.63
2022-10-18T01:29:42.348Z,12.59
2022-10-18T01:32:18.856Z,12.54
2022-10-18T01:34:48.817Z,12.54
2022-10-18T01:37:17.790Z,12.58
2022-10-18T01:39:47.866Z,12.59
2022-10-18T01:42:19.556Z,12.56
2022-10-18T01:44:48.324Z,12.53
2022-10-18T01:47:16.737Z,12.54
2022-10-18T01:49:43.870Z,12.52
2022-10-18T01:52:15.805Z,12.53
2022-10-18T01:54:46.136Z,12.51
2022-10-18T01:57:51.894Z,12.45
2022-10-18T02:00:35.078Z,12.43
2022-10-18T02:03:10.857Z,12.39
2022-10-18T02:05:46.602Z,12.36
2022-10-18T02:08:32.122Z,12.36
2022-10-18T02:11:04.734Z,12.34
2022-10-18T02:13:38.771Z,12.34
2022-10-18T02:16:12.035Z,12.29
2022-10-18T02:18:43.923Z,12.29
2022-10-18T02:21:14.151Z,12.27
2022-10-18T02:23:43.994Z,12.31
2022-10-18T02:26:11.476Z,12.29
2022-10-18T02:28:39.482Z,12.22
2022-10-18T02:31:20.334Z,12.12
2022-10-18T02:33:55.684Z,12.09
2022-10-18T02:36:28.788Z,12.09
2022-10-18T02:39:02.112Z,12.08
2022-10-18T02:41:30.875Z,12.08
2022-10-18T02:43:58.008Z,12.00
2022-10-18T02:48:57.242Z,12.08
2022-10-18T02:51:25.158Z,12.08
2022-10-18T02:53:52.368Z,12.05
2022-10-18T02:56:19.490Z,12.00
2022-10-18T02:58:46.594Z,11.95
2022-10-18T03:01:13.866Z,11.95
2022-10-18T03:03:41.114Z,11.92
2022-10-18T03:06:08.272Z,11.89
2022-10-18T03:08:36.461Z,11.91
2022-10-18T03:11:03.586Z,11.89
2022-10-18T03:16:02.703Z,11.78
2022-10-18T03:18:29.831Z,11.74
2022-10-18T03:20:56.891Z,11.66
2022-10-18T03:23:23.973Z,11.63
2022-10-18T03:25:51.156Z,11.60
2022-10-18T03:28:18.272Z,11.54
2022-10-18T03:30:45.452Z,11.52
2022-10-18T03:33:12.934Z,11.53
2022-10-18T03:35:40.036Z,11.51
2022-10-18T03:38:07.268Z,11.50
2022-10-18T03:40:34.750Z,11.51
2022-10-18T03:43:01.915Z,11.54
2022-10-18T03:45:31.290Z,11.56
2022-10-18T03:47:58.787Z,11.53
2022-10-18T03:50:25.904Z,11.55
2022-10-18T03:52:54.475Z,11.56
2022-10-18T03:55:21.822Z,11.58
2022-10-18T03:57:50.180Z,11.57
2022-10-18T04:00:17.565Z,11.60
2022-10-18T04:02:44.668Z,11.57
2022-10-18T04:05:12.880Z,11.55
2022-10-18T04:07:40.185Z,11.52
2022-10-18T04:10:08.000Z,11.52
2022-10-18T04:12:35.139Z,11.51
2022-10-18T04:15:03.065Z,11.53
2022-10-18T04:17:30.527Z,11.47
2022-10-18T04:19:57.782Z,11.38
2022-10-18T04:22:24.915Z,11.31
2022-10-18T04:24:53.311Z,11.31
2022-10-18T04:27:20.435Z,11.30
2022-10-18T04:29:47.526Z,11.32
2022-10-18T04:32:14.763Z,11.31
2022-10-18T04:37:13.878Z,11.40
2022-10-18T04:39:40.968Z,11.38
2022-10-18T04:42:08.272Z,11.38
2022-10-18T04:44:35.423Z,11.35
2022-10-18T04:47:02.681Z,11.37
2022-10-18T04:49:29.810Z,11.37
2022-10-18T04:51:56.874Z,11.36
2022-10-18T04:54:26.514Z,11.40
2022-10-18T04:56:55.787Z,11.41
2022-10-18T04:59:22.887Z,11.40
2022-10-18T05:01:50.074Z,11.37
2022-10-18T05:04:17.222Z,11.37
2022-10-18T05:06:44.283Z,11.37
2022-10-18T05:09:11.382Z,11.41
2022-10-18T05:11:38.599Z,11.41
2022-10-18T05:14:05.738Z,11.43
2022-10-18T05:16:33.096Z,11.41
2022-10-18T05:19:00.206Z,11.44
2022-10-18T05:21:27.381Z,11.44
2022-10-18T05:23:58.035Z,11.48
2022-10-18T05:26:25.143Z,11.45
2022-10-18T05:28:52.247Z,11.47
2022-10-18T05:31:19.366Z,11.44
2022-10-18T05:33:46.605Z,11.52
2022-10-18T05:36:13.851Z,11.54
2022-10-18T05:38:45.373Z,11.50
2022-10-18T05:41:12.826Z,11.50
2022-10-18T05:43:40.746Z,11.52
2022-10-18T05:46:13.549Z,11.56
2022-10-18T05:48:43.999Z,11.67
2022-10-18T05:51:11.288Z,11.69
2022-10-18T05:53:38.551Z,11.74
2022-10-18T05:56:07.203Z,11.75
2022-10-18T05:58:34.932Z,11.82
2022-10-18T06:01:03.682Z,11.93
2022-10-18T06:03:31.082Z,11.97
2022-10-18T06:06:06.105Z,12.01
2022-10-18T06:08:34.378Z,12.10
2022-10-18T06:11:06.948Z,12.18
2022-10-18T06:13:34.298Z,12.22
2022-10-18T06:16:01.466Z,12.28
2022-10-18T06:18:29.724Z,12.33
2022-10-18T06:20:58.266Z,12.39
2022-10-18T06:23:29.110Z,12.45
2022-10-18T06:26:01.000Z,12.58
2022-10-18T06:28:29.769Z,12.66
2022-10-18T06:30:57.917Z,12.79
2022-10-18T06:33:25.656Z,12.87
2022-10-18T06:36:01.322Z,12.96
2022-10-18T06:38:29.818Z,13.04
2022-10-18T06:40:58.022Z,13.15
2022-10-18T06:43:25.580Z,13.27
2022-10-18T06:45:53.325Z,13.40
2022-10-18T06:48:21.369Z,13.53
2022-10-18T06:50:59.115Z,13.62
2022-10-18T06:53:28.086Z,13.66
2022-10-18T06:56:10.339Z,13.81
2022-10-18T06:58:37.943Z,13.91
2022-10-18T07:01:23.047Z,14.04
2022-10-18T07:03:53.223Z,14.09
2022-10-18T07:06:21.073Z,14.24
2022-10-18T07:08:49.345Z,14.29
2022-10-18T07:11:19.472Z,14.45
2022-10-18T07:13:46.757Z,14.57
2022-10-18T07:16:18.324Z,14.66
2022-10-18T07:18:52.149Z,14.75
2022-10-18T07:21:22.690Z,14.90
2022-10-18T07:23:50.815Z,14.99
2022-10-18T07:26:32.039Z,15.16
2022-10-18T07:29:05.475Z,15.29
2022-10-18T07:31:33.366Z,15.40
2022-10-18T07:34:00.646Z,15.57
2022-10-18T07:36:27.761Z,15.69
2022-10-18T07:38:54.967Z,15.81
2022-10-18T07:41:22.749Z,15.94
2022-10-18T07:43:51.789Z,16.09
2022-10-18T07:46:21.210Z,16.25
2022-10-18T07:48:49.125Z,16.40
2022-10-18T07:51:17.148Z,16.57
2022-10-18T07:53:44.263Z,16.70
2022-10-18T07:56:17.049Z,16.82
2022-10-18T07:58:45.334Z,16.98
2022-10-18T08:01:13.511Z,17.10
2022-10-18T08:03:41.967Z,17.33
2022-10-18T08:06:11.008Z,17.30
2022-10-18T08:08:40.354Z,17.42
2022-10-18T08:11:27.701Z,17.48
2022-10-18T08:13:55.067Z,17.65
2022-10-18T08:16:24.748Z,17.76
2022-10-18T08:18:52.529Z,17.74
2022-10-18T08:21:21.083Z,17.79
2022-10-18T08:23:49.154Z,17.92
2022-10-18T08:26:18.558Z,18.05
2022-10-18T08:28:54.108Z,18.25
2022-10-18T08:31:26.569Z,18.35
2022-10-18T08:33:57.179Z,18.38
2022-10-18T08:36:24.867Z,18.41
2022-10-18T08:38:52.320Z,18.60
2022-10-18T08:41:36.635Z,18.66
2022-10-18T08:44:33.021Z,18.66
2022-10-18T08:47:07.002Z,18.79
2022-10-18T08:49:36.875Z,18.99
2022-10-18T08:52:12.322Z,19.01
2022-10-18T08:55:00.050Z,19.09
2022-10-18T08:57:27.326Z,19.13
2022-10-18T08:59:54.517Z,19.21
2022-10-18T09:02:49.634Z,19.39
2022-10-18T09:05:27.653Z,19.42
2022-10-18T09:08:38.978Z,19.49
2022-10-18T09:11:33.350Z,19.67
2022-10-18T09:14:17.626Z,19.74
2022-10-18T09:16:53.234Z,19.91
2022-10-18T09:19:29.390Z,20.02
2022-10-18T09:22:11.912Z,20.03
2022-10-18T09:24:39.947Z,20.24
2022-10-18T09:27:18.228Z,20.39
2022-10-18T09:29:48.224Z,20.49
2022-10-18T09:32:27.349Z,20.70
2022-10-18T09:35:15.732Z,20.93
2022-10-18T09:37:44.418Z,20.87
2022-10-18T09:40:18.983Z,20.61
2022-10-18T09:42:58.331Z,20.77
2022-10-18T09:45:32.634Z,20.88
2022-10-18T09:48:03.095Z,20.95
2022-10-18T09:50:42.412Z,21.06
2022-10-18T09:53:38.147Z,21.09
2022-10-18T09:56:09.411Z,21.12
2022-10-18T09:58:47.697Z,20.95
2022-10-18T10:01:19.781Z,21.37
2022-10-18T10:03:46.932Z,21.47
2022-10-18T10:06:16.623Z,21.60
2022-10-18T10:08:48.891Z,21.72
2022-10-18T10:11:36.147Z,21.86
2022-10-18T10:16:54.846Z,21.97
2022-10-18T10:19:55.620Z,21.93
2022-10-18T10:22:35.769Z,22.12
2022-10-18T10:25:04.063Z,22.16
2022-10-18T10:27:43.547Z,22.26
2022-10-18T10:30:37.408Z,22.50
2022-10-18T10:33:05.250Z,22.32
2022-10-18T10:38:29.355Z,22.59
2022-10-18T10:40:57.734Z,22.72
2022-10-18T10:43:44.056Z,23.00
2022-10-18T10:46:18.828Z,23.00
2022-10-18T10:48:49.689Z,22.93
2022-10-18T10:51:28.796Z,22.90
2022-10-18T10:54:24.413Z,23.26
2022-10-18T10:57:05.025Z,23.01
2022-10-18T11:02:14.212Z,23.25
2022-10-18T11:04:42.837Z,23.26
2022-10-18T11:07:09.892Z,23.12
2022-10-18T11:09:45.765Z,23.21
2022-10-18T11:12:28.549Z,23.38
2022-10-18T11:15:13.875Z,23.41
2022-10-18T11:18:04.684Z,23.50
2022-10-18T11:21:13.086Z,23.47
2022-10-18T11:23:42.855Z,23.30
2022-10-18T11:26:12.768Z,23.18
2022-10-18T11:28:54.413Z,23.54
2022-10-18T11:31:47.317Z,23.73
2022-10-18T11:34:47.387Z,23.75
2022-10-18T11:37:42.214Z,24.05
2022-10-18T11:40:32.416Z,24.17
2022-10-18T11:43:16.475Z,24.52
2022-10-18T11:46:12.719Z,24.23
2022-10-18T11:49:14.052Z,23.97
2022-10-18T11:52:07.728Z,24.23
2022-10-18T11:54:56.873Z,24.21
2022-10-18T11:58:03.792Z,24.32
2022-10-18T12:00:33.573Z,23.89
2022-10-18T12:03:07.423Z,24.20
2022-10-18T12:05:37.996Z,24.50
2022-10-18T12:08:23.098Z,24.41
2022-10-18T12:11:08.949Z,24.26
2022-10-18T12:13:46.318Z,24.50
2022-10-18T12:16:14.362Z,24.51
2022-10-18T12:19:04.430Z,24.53
2022-10-18T12:21:34.177Z,24.59
2022-10-18T12:24:11.035Z,24.71
2022-10-18T12:26:38.526Z,24.86
2022-10-18T12:29:08.341Z,24.51
2022-10-18T12:31:59.007Z,24.46
2022-10-18T12:34:32.027Z,24.77
2022-10-18T12:37:11.181Z,24.85
2022-10-18T12:40:09.448Z,24.70
2022-10-18T12:42:42.764Z,24.62
2022-10-18T12:45:32.217Z,24.83
2022-10-18T12:48:01.987Z,24.84
2022-10-18T12:50:42.051Z,24.97
2022-10-18T12:53:12.281Z,25.07
2022-10-18T12:55:44.607Z,25.27
2022-10-18T12:58:14.767Z,25.34
2022-10-18T13:00:41.839Z,25.17
2022-10-18T13:03:17.973Z,25.17
2022-10-18T13:05:53.500Z,24.81
2022-10-18T13:08:27.904Z,25.29
2022-10-18T13:11:10.174Z,25.16
2022-10-18T13:13:52.360Z,25.01
2022-10-18T13:16:46.746Z,25.02
2022-10-18T13:19:32.687Z,24.74
2022-10-18T13:21:59.727Z,24.68
2022-10-18T13:24:32.070Z,24.99
2022-10-18T13:27:35.832Z,24.91
2022-10-18T13:30:21.869Z,24.90
2022-10-18T13:33:16.691Z,24.92
2022-10-18T13:36:07.055Z,24.76
2022-10-18T13:38:55.676Z,25.08
2022-10-18T13:41:34.392Z,24.99
2022-10-18T13:44:37.739Z,24.65
2022-10-18T13:47:05.488Z,24.80
2022-10-18T13:49:48.883Z,25.09
2022-10-18T13:52:47.047Z,24.83
2022-10-18T13:55:29.306Z,24.87
2022-10-18T13:58:17.298Z,25.00
2022-10-18T14:00:52.462Z,24.99
2022-10-18T14:03:56.985Z,24.68
2022-10-18T14:06:32.640Z,24.98
2022-10-18T14:09:25.707Z,25.07
2022-10-18T14:12:14.704Z,25.05
2022-10-18T14:14:54.927Z,25.32
2022-10-18T14:17:50.012Z,25.29
2022-10-18T14:20:20.924Z,25.47
2022-10-18T14:22:53.558Z,25.39
2022-10-18T14:25:41.299Z,25.37
2022-10-18T14:28:15.618Z,25.46
2022-10-18T14:31:07.305Z,25.25
2022-10-18T14:33:34.394Z,24.94
2022-10-18T14:36:08.153Z,24.77
2022-10-18T14:38:45.742Z,24.93
2022-10-18T14:41:26.466Z,24.93
2022-10-18T14:44:16.525Z,24.87
2022-10-18T14:46:48.726Z,24.75
2022-10-18T14:49:18.101Z,24.37
2022-10-18T14:51:48.691Z,24.38
2022-10-18T14:54:31.956Z,24.28
2022-10-18T14:57:01.133Z,24.14
2022-10-18T14:59:32.462Z,24.03
2022-10-18T15:02:05.006Z,23.94
2022-10-18T15:04:33.179Z,23.84
2022-10-18T15:07:02.010Z,23.78
2022-10-18T15:09:30.536Z,23.65
2022-10-18T15:11:58.375Z,23.56
2022-10-18T15:14:27.523Z,23.44
2022-10-18T15:17:00.541Z,23.37
2022-10-18T15:19:31.222Z,23.26
2022-10-18T15:22:31.219Z,23.20
2022-10-18T15:25:18.260Z,23.03
2022-10-18T15:27:48.544Z,22.92
2022-10-18T15:30:18.701Z,22.85
2022-10-18T15:32:55.989Z,22.75
2022-10-18T15:35:32.294Z,22.72
2022-10-18T15:38:04.844Z,22.56
2022-10-18T15:40:36.033Z,22.41
2022-10-18T15:43:06.162Z,22.29
2022-10-18T15:45:37.531Z,22.17
2022-10-18T15:48:10.632Z,22.04
2022-10-18T15:50:39.668Z,21.94
2022-10-18T15:53:25.207Z,21.85
2022-10-18T15:56:01.191Z,21.78
2022-10-18T15:58:36.210Z,21.69
2022-10-18T16:01:04.440Z,21.57
2022-10-18T16:03:35.740Z,21.47
2022-10-18T16:06:07.532Z,21.38
2022-10-18T16:08:40.945Z,21.26
2022-10-18T16:11:14.814Z,21.14
2022-10-18T16:13:43.983Z,21.03
2022-10-18T16:16:17.880Z,20.91
2022-10-18T16:18:45.294Z,20.77
2022-10-18T16:21:20.526Z,20.70
2022-10-18T16:23:49.049Z,20.60
2022-10-18T16:26:17.693Z,20.50
2022-10-18T16:28:45.907Z,20.38
2022-10-18T16:31:24.725Z,20.26
2022-10-18T16:33:54.792Z,20.18
2022-10-18T16:36:33.458Z,20.08
2022-10-18T16:39:03.806Z,19.99
2022-10-18T16:41:30.909Z,19.91
2022-10-18T16:43:58.002Z,19.76
2022-10-18T16:46:28.774Z,19.69
2022-10-18T16:48:56.890Z,19.63
2022-10-18T16:51:24.264Z,19.57
2022-10-18T16:53:53.331Z,19.52
2022-10-18T16:56:32.124Z,19.42
2022-10-18T16:59:00.383Z,19.38
2022-10-18T17:01:27.982Z,19.32
2022-10-18T17:03:55.314Z,19.24
2022-10-18T17:06:26.861Z,19.18
2022-10-18T17:08:55.318Z,19.14
2022-10-18T17:11:24.513Z,19.12
2022-10-18T17:13:51.617Z,19.09
2022-10-18T17:18:57.716Z,19.04
2022-10-18T17:21:26.362Z,18.99
2022-10-18T17:23:53.546Z,18.93
2022-10-18T17:26:28.930Z,18.86
2022-10-18T17:29:02.930Z,18.81
2022-10-18T17:31:30.720Z,18.75
2022-10-18T17:33:59.735Z,18.66
2022-10-18T17:36:27.136Z,18.57
2022-10-18T17:38:54.782Z,18.49
2022-10-18T17:41:22.312Z,18.37
2022-10-18T17:43:49.822Z,18.22
2022-10-18T17:46:17.952Z,18.14
2022-10-18T17:48:45.581Z,18.11
2022-10-18T17:51:15.135Z,18.09
2022-10-18T17:53:42.355Z,18.08
2022-10-18T17:56:10.531Z,18.03
2022-10-18T17:58:37.753Z,17.99
2022-10-18T18:01:19.423Z,17.94
2022-10-18T18:03:49.677Z,17.91
2022-10-18T18:06:23.713Z,17.88
2022-10-18T18:08:50.884Z,17.86
2022-10-18T18:11:18.670Z,17.81
2022-10-18T18:13:45.948Z,17.78
2022-10-18T18:16:22.026Z,17.71
2022-10-18T18:18:52.097Z,17.64
2022-10-18T18:21:20.283Z,17.57
2022-10-18T18:23:48.527Z,17.49
2022-10-18T18:26:17.606Z,17.41
2022-10-18T18:28:44.922Z,17.38
2022-10-18T18:31:16.396Z,17.36
2022-10-18T18:33:43.827Z,17.30
2022-10-18T18:36:11.691Z,17.25
2022-10-18T18:38:42.527Z,17.22
2022-10-18T18:41:18.586Z,17.19
2022-10-18T18:43:51.170Z,17.16
2022-10-18T18:46:18.416Z,17.08
2022-10-18T18:48:45.619Z,16.98
2022-10-18T18:51:15.779Z,16.94
2022-10-18T18:53:44.243Z,16.89
2022-10-18T18:56:14.582Z,16.77
2022-10-18T18:58:43.987Z,16.61
2022-10-18T19:01:14.878Z,16.56
2022-10-18T19:03:42.947Z,16.54
2022-10-18T19:06:15.859Z,16.51
2022-10-18T19:08:44.839Z,16.45
2022-10-18T19:11:17.970Z,16.39
2022-10-18T19:13:45.606Z,16.28
2022-10-18T19:16:27.797Z,16.13
2022-10-18T19:19:06.832Z,16.19
2022-10-18T19:21:44.243Z,16.16
2022-10-18T19:24:11.779Z,16.14
2022-10-18T19:26:50.302Z,16.06
2022-10-18T19:29:22.596Z,15.96
2022-10-18T19:31:54.825Z,15.96
2022-10-18T19:34:23.735Z,15.91
2022-10-18T19:36:51.793Z,15.90
2022-10-18T19:39:22.030Z,15.89
2022-10-18T19:41:51.730Z,15.85
2022-10-18T19:44:19.741Z,15.76
2022-10-18T19:46:48.219Z,15.73
2022-10-18T19:49:16.388Z,15.70
2022-10-18T19:51:43.668Z,15.61
2022-10-18T19:54:11.950Z,15.53
2022-10-18T19:56:41.058Z,15.55
2022-10-18T19:59:09.036Z,15.50
2022-10-18T20:01:36.960Z,15.52
2022-10-18T20:04:04.751Z,15.55
2022-10-18T20:06:32.171Z,15.55
2022-10-18T20:08:59.482Z,15.58
2022-10-18T20:11:28.411Z,15.60
2022-10-18T20:13:55.997Z,15.61
2022-10-18T20:16:28.888Z,15.59
2022-10-18T20:19:01.393Z,15.54
2022-10-18T20:21:30.099Z,15.50
2022-10-18T20:23:57.495Z,15.42
2022-10-18T20:26:25.454Z,15.38
2022-10-18T20:28:57.122Z,15.32
2022-10-18T20:31:26.464Z,15.32
2022-10-18T20:34:04.975Z,15.29
2022-10-18T20:36:32.921Z,15.29
2022-10-18T20:39:00.731Z,15.29
2022-10-18T20:41:34.011Z,15.29
2022-10-18T20:44:03.966Z,15.26
2022-10-18T20:46:33.694Z,15.25
2022-10-18T20:49:01.042Z,15.24
2022-10-18T20:51:28.564Z,15.24
2022-10-18T20:53:55.783Z,15.27
2022-10-18T20:56:26.539Z,15.19
2022-10-18T20:58:56.498Z,15.12
2022-10-18T21:01:26.394Z,15.10
2022-10-18T21:03:55.932Z,15.10
2022-10-18T21:06:34.668Z,15.15
2022-10-18T21:09:05.659Z,15.14
2022-10-18T21:11:36.713Z,15.11
2022-10-18T21:14:05.067Z,15.07
2022-10-18T21:16:34.955Z,15.04
2022-10-18T21:19:07.442Z,14.99
2022-10-18T21:21:35.200Z,14.99
2022-10-18T21:24:05.532Z,14.96
2022-10-18T21:26:35.695Z,14.91
2022-10-18T21:29:04.299Z,14.82
2022-10-18T21:31:37.188Z,14.75
2022-10-18T21:34:07.390Z,14.77
2022-10-18T21:36:36.737Z,14.74
2022-10-18T21:39:06.344Z,14.74
2022-10-18T21:41:34.266Z,14.72
2022-10-18T21:44:04.505Z,14.65
2022-10-18T21:46:34.697Z,14.55
2022-10-18T21:49:01.798Z,14.54
2022-10-18T21:51:29.274Z,14.48
2022-10-18T21:53:58.148Z,14.41
2022-10-18T21:56:27.741Z,14.46
2022-10-18T21:58:55.726Z,14.52
2022-10-18T22:01:26.195Z,14.50
2022-10-18T22:03:55.686Z,14.43
2022-10-18T22:06:23.995Z,14.34
2022-10-18T22:08:54.167Z,14.30
2022-10-18T22:11:25.724Z,14.31
2022-10-18T22:13:53.154Z,14.24
2022-10-18T22:16:20.819Z,14.20
2022-10-18T22:18:49.066Z,14.21
2022-10-18T22:21:18.158Z,14.17
2022-10-18T22:23:47.556Z,14.12
2022-10-18T22:26:20.442Z,14.11
2022-10-18T22:28:53.125Z,14.07
2022-10-18T22:31:23.067Z,14.04
2022-10-18T22:33:58.911Z,14.05
2022-10-18T22:36:26.679Z,14.06
2022-10-18T22:38:54.046Z,14.05
2022-10-18T22:41:21.613Z,14.07
2022-10-18T22:43:50.319Z,14.07
2022-10-18T22:46:17.863Z,14.09
2022-10-18T22:48:45.408Z,14.08
2022-10-18T22:51:12.966Z,14.08
2022-10-18T22:53:40.945Z,14.04
2022-10-18T22:56:11.811Z,13.99
2022-10-18T22:58:38.894Z,14.02
2022-10-18T23:01:10.142Z,14.00
2022-10-18T23:03:38.203Z,13.98
2022-10-18T23:06:17.062Z,13.97
2022-10-18T23:08:44.139Z,13.96
2022-10-18T23:11:11.287Z,13.96
2022-10-18T23:13:39.625Z,13.92
2022-10-18T23:16:07.258Z,13.90
2022-10-18T23:18:34.749Z,13.86
2022-10-18T23:21:09.229Z,13.83
2022-10-18T23:23:38.333Z,13.82
2022-10-18T23:26:08.187Z,13.78
2022-10-18T23:28:37.292Z,13.75
2022-10-18T23:31:09.821Z,13.73
2022-10-18T23:33:37.476Z,13.66
2022-10-18T23:36:05.734Z,13.66
2022-10-18T23:38:34.056Z,13.56
2022-10-18T23:41:01.177Z,13.57
2022-10-18T23:43:28.350Z,13.51
2022-10-18T23:45:55.512Z,13.51
2022-10-18T23:48:22.594Z,13.50
2022-10-18T23:50:49.946Z,13.46
2022-10-18T23:53:19.476Z,13.43
2022-10-18T23:55:53.893Z,13.41
2022-10-18T23:58:21.412Z,13.42
